sensor_id;sensor_type;location;lat;lon;timestamp;pressure;altitude;pressure_sealevel;temperature;humidity
71194;BME280;58903;47.210;8.618;2023-03-14T00:01:28;93061.47;;;26.76;37.10
71194;BME280;58903;47.210;8.618;2023-03-14T00:04:01;93067.72;;;26.77;37.32
71194;BME280;58903;47.210;8.618;2023-03-14T00:06:46;93074.50;;;26.76;37.01
71194;BME280;58903;47.210;8.618;2023-03-14T00:09:13;93080.03;;;26.76;37.13
71194;BME280;58903;47.210;8.618;2023-03-14T00:12:09;93086.47;;;26.78;36.86
71194;BME280;58903;47.210;8.618;2023-03-14T00:14:43;93092.72;;;26.79;36.72
71194;BME280;58903;47.210;8.618;2023-03-14T00:17:13;93094.19;;;26.80;36.94
71194;BME280;58903;47.210;8.618;2023-03-14T00:19:39;93093.09;;;26.83;36.94
71194;BME280;58903;47.210;8.618;2023-03-14T00:22:09;93076.00;;;26.77;36.47
71194;BME280;58903;47.210;8.618;2023-03-14T00:24:45;93077.63;;;26.80;37.20
71194;BME280;58903;47.210;8.618;2023-03-14T00:27:15;93070.66;;;26.79;36.65
71194;BME280;58903;47.210;8.618;2023-03-14T00:29:43;93062.22;;;26.77;37.02
71194;BME280;58903;47.210;8.618;2023-03-14T00:32:10;93056.88;;;26.79;36.67
71194;BME280;58903;47.210;8.618;2023-03-14T00:35:12;93032.03;;;26.79;37.16
71194;BME280;58903;47.210;8.618;2023-03-14T00:37:40;93043.09;;;26.79;36.80
71194;BME280;58903;47.210;8.618;2023-03-14T00:40:26;93022.84;;;26.76;36.55
71194;BME280;58903;47.210;8.618;2023-03-14T00:43:23;93008.69;;;26.80;36.83
71194;BME280;58903;47.210;8.618;2023-03-14T00:46:02;92992.69;;;26.78;36.76
71194;BME280;58903;47.210;8.618;2023-03-14T00:48:48;92986.44;;;26.78;37.23
71194;BME280;58903;47.210;8.618;2023-03-14T00:51:14;92968.41;;;26.77;37.00
71194;BME280;58903;47.210;8.618;2023-03-14T00:53:41;92957.38;;;26.77;36.68
71194;BME280;58903;47.210;8.618;2023-03-14T00:56:18;92941.38;;;26.75;36.44
71194;BME280;58903;47.210;8.618;2023-03-14T00:58:46;92936.78;;;26.78;36.99
71194;BME280;58903;47.210;8.618;2023-03-14T01:01:17;92897.97;;;26.76;36.59
71194;BME280;58903;47.210;8.618;2023-03-14T01:03:59;92917.47;;;26.78;36.93
71194;BME280;58903;47.210;8.618;2023-03-14T01:06:29;92916.72;;;26.77;36.71
71194;BME280;58903;47.210;8.618;2023-03-14T01:08:59;92931.25;;;26.78;36.73
71194;BME280;58903;47.210;8.618;2023-03-14T01:11:32;92952.06;;;26.79;36.39
71194;BME280;58903;47.210;8.618;2023-03-14T01:13:59;92939.72;;;26.80;36.78
71194;BME280;58903;47.210;8.618;2023-03-14T01:16:34;92954.81;;;26.79;36.74
71194;BME280;58903;47.210;8.618;2023-03-14T01:19:01;92928.69;;;26.80;36.37
71194;BME280;58903;47.210;8.618;2023-03-14T01:21:30;92920.22;;;26.78;36.32
71194;BME280;58903;47.210;8.618;2023-03-14T01:23:58;92923.16;;;26.80;36.49
71194;BME280;58903;47.210;8.618;2023-03-14T01:26:27;92925.75;;;26.78;36.85
71194;BME280;58903;47.210;8.618;2023-03-14T01:28:56;92919.47;;;26.77;37.01
71194;BME280;58903;47.210;8.618;2023-03-14T01:31:30;92935.31;;;26.77;36.30
71194;BME280;58903;47.210;8.618;2023-03-14T01:34:30;92932.56;;;26.77;36.79
71194;BME280;58903;47.210;8.618;2023-03-14T01:36:57;92926.31;;;26.76;36.35
71194;BME280;58903;47.210;8.618;2023-03-14T01:39:23;92926.69;;;26.73;36.72
71194;BME280;58903;47.210;8.618;2023-03-14T01:48:41;92928.88;;;26.74;36.84
71194;BME280;58903;47.210;8.618;2023-03-14T01:58:15;92926.88;;;26.75;37.18
71194;BME280;58903;47.210;8.618;2023-03-14T02:00:42;92917.84;;;26.74;36.57
71194;BME280;58903;47.210;8.618;2023-03-14T02:03:15;92910.13;;;26.73;36.56
71194;BME280;58903;47.210;8.618;2023-03-14T02:05:44;92901.84;;;26.73;36.77
71194;BME280;58903;47.210;8.618;2023-03-14T02:08:29;92908.84;;;26.74;36.69
71194;BME280;58903;47.210;8.618;2023-03-14T02:10:58;92895.03;;;26.74;36.49
71194;BME280;58903;47.210;8.618;2023-03-14T02:13:45;92886.03;;;26.73;36.45
71194;BME280;58903;47.210;8.618;2023-03-14T02:16:22;92893.03;;;26.74;36.93
71194;BME280;58903;47.210;8.618;2023-03-14T02:19:02;92882.72;;;26.75;36.81
71194;BME280;58903;47.210;8.618;2023-03-14T02:21:55;92884.19;;;26.76;36.72
71194;BME280;58903;47.210;8.618;2023-03-14T02:27:39;92877.22;;;26.75;36.63
71194;BME280;58903;47.210;8.618;2023-03-14T02:32:41;92853.66;;;26.74;36.61
71194;BME280;58903;47.210;8.618;2023-03-14T02:35:22;92844.13;;;26.75;36.58
71194;BME280;58903;47.210;8.618;2023-03-14T02:38:33;92849.63;;;26.75;36.58
71194;BME280;58903;47.210;8.618;2023-03-14T02:41:03;92834.16;;;26.72;36.57
71194;BME280;58903;47.210;8.618;2023-03-14T02:43:31;92829.38;;;26.72;36.63
71194;BME280;58903;47.210;8.618;2023-03-14T02:46:11;92828.84;;;26.74;36.45
71194;BME280;58903;47.210;8.618;2023-03-14T02:49:07;92824.63;;;26.73;36.72
71194;BME280;58903;47.210;8.618;2023-03-14T02:51:41;92815.06;;;26.74;37.11
71194;BME280;58903;47.210;8.618;2023-03-14T02:54:11;92818.34;;;26.72;36.29
71194;BME280;58903;47.210;8.618;2023-03-14T02:56:49;92823.84;;;26.72;36.94
71194;BME280;58903;47.210;8.618;2023-03-14T02:59:22;92819.13;;;26.73;37.00
71194;BME280;58903;47.210;8.618;2023-03-14T03:01:59;92813.59;;;26.73;36.41
71194;BME280;58903;47.210;8.618;2023-03-14T03:04:26;92812.81;;;26.72;36.43
71194;BME280;58903;47.210;8.618;2023-03-14T03:06:52;92810.84;;;26.73;36.51
71194;BME280;58903;47.210;8.618;2023-03-14T03:09:30;92808.78;;;26.73;36.52
71194;BME280;58903;47.210;8.618;2023-03-14T03:12:00;92807.84;;;26.71;36.92
71194;BME280;58903;47.210;8.618;2023-03-14T03:14:31;92808.09;;;26.73;36.88
71194;BME280;58903;47.210;8.618;2023-03-14T03:17:14;92800.31;;;26.71;36.93
71194;BME280;58903;47.210;8.618;2023-03-14T03:19:40;92796.81;;;26.71;36.96
71194;BME280;58903;47.210;8.618;2023-03-14T03:22:06;92788.78;;;26.73;36.80
71194;BME280;58903;47.210;8.618;2023-03-14T03:24:33;92783.03;;;26.71;37.18
71194;BME280;58903;47.210;8.618;2023-03-14T03:26:59;92777.50;;;26.71;36.49
71194;BME280;58903;47.210;8.618;2023-03-14T03:29:38;92766.47;;;26.71;36.67
71194;BME280;58903;47.210;8.618;2023-03-14T03:32:13;92769.06;;;26.69;36.29
71194;BME280;58903;47.210;8.618;2023-03-14T03:34:44;92767.44;;;26.66;36.83
71194;BME280;58903;47.210;8.618;2023-03-14T03:37:30;92774.56;;;26.69;36.36
71194;BME280;58903;47.210;8.618;2023-03-14T03:40:21;92765.03;;;26.70;37.02
71194;BME280;58903;47.210;8.618;2023-03-14T03:42:48;92771.81;;;26.69;36.75
71194;BME280;58903;47.210;8.618;2023-03-14T03:45:18;92762.44;;;26.72;36.47
71194;BME280;58903;47.210;8.618;2023-03-14T03:47:47;92756.75;;;26.70;36.42
71194;BME280;58903;47.210;8.618;2023-03-14T03:50:28;92753.81;;;26.68;36.84
71194;BME280;58903;47.210;8.618;2023-03-14T03:53:08;92745.38;;;26.66;36.25
71194;BME280;58903;47.210;8.618;2023-03-14T03:55:53;92750.88;;;26.66;36.83
71194;BME280;58903;47.210;8.618;2023-03-14T03:58:29;92742.44;;;26.64;36.46
71194;BME280;58903;47.210;8.618;2023-03-14T04:01:06;92748.13;;;26.66;36.64
71194;BME280;58903;47.210;8.618;2023-03-14T04:03:33;92753.66;;;26.66;37.05
71194;BME280;58903;47.210;8.618;2023-03-14T04:06:07;92749.41;;;26.65;37.00
71194;BME280;58903;47.210;8.618;2023-03-14T04:08:41;92745.38;;;26.66;36.67
71194;BME280;58903;47.210;8.618;2023-03-14T04:11:10;92741.13;;;26.65;36.38
71194;BME280;58903;47.210;8.618;2023-03-14T04:13:37;92734.88;;;26.64;36.52
71194;BME280;58903;47.210;8.618;2023-03-14T04:16:03;92730.84;;;26.65;36.43
71194;BME280;58903;47.210;8.618;2023-03-14T04:18:30;92732.84;;;26.65;37.08
71194;BME280;58903;47.210;8.618;2023-03-14T04:20:57;92730.09;;;26.65;36.89
71194;BME280;58903;47.210;8.618;2023-03-14T04:23:32;92736.91;;;26.64;36.76
71194;BME280;58903;47.210;8.618;2023-03-14T04:26:04;92732.84;;;26.65;36.75
71194;BME280;58903;47.210;8.618;2023-03-14T04:32:13;92721.66;;;26.63;36.93
71194;BME280;58903;47.210;8.618;2023-03-14T04:34:54;92725.31;;;26.65;36.71
71194;BME280;58903;47.210;8.618;2023-03-14T04:37:21;92716.13;;;26.63;36.40
71194;BME280;58903;47.210;8.618;2023-03-14T04:39:55;92705.09;;;26.63;37.08
71194;BME280;58903;47.210;8.618;2023-03-14T04:42:25;92700.91;;;26.62;36.54
71194;BME280;58903;47.210;8.618;2023-03-14T04:45:08;92690.03;;;26.64;36.43
71194;BME280;58903;47.210;8.618;2023-03-14T04:47:40;92680.84;;;26.61;36.77
71194;BME280;58903;47.210;8.618;2023-03-14T04:50:09;92680.28;;;26.63;36.92
71194;BME280;58903;47.210;8.618;2023-03-14T04:52:44;92670.56;;;26.62;36.43
71194;BME280;58903;47.210;8.618;2023-03-14T04:55:09;92665.75;;;26.62;37.05
71194;BME280;58903;47.210;8.618;2023-03-14T04:57:49;92671.28;;;26.62;36.63
71194;BME280;58903;47.210;8.618;2023-03-14T05:00:16;92667.97;;;26.64;36.71
71194;BME280;58903;47.210;8.618;2023-03-14T05:03:00;92663.75;;;26.63;36.90
71194;BME280;58903;47.210;8.618;2023-03-14T05:05:26;92659.72;;;26.64;36.51
71194;BME280;58903;47.210;8.618;2023-03-14T05:07:55;92658.06;;;26.61;36.63
71194;BME280;58903;47.210;8.618;2023-03-14T05:10:25;92659.13;;;26.65;36.88
71194;BME280;58903;47.210;8.618;2023-03-14T05:13:21;92665.41;;;26.66;36.64
71194;BME280;58903;47.210;8.618;2023-03-14T05:15:49;92663.91;;;26.65;36.55
71194;BME280;58903;47.210;8.618;2023-03-14T05:18:20;92651.59;;;26.66;36.64
71194;BME280;58903;47.210;8.618;2023-03-14T05:20:53;92632.31;;;26.66;36.55
71194;BME280;58903;47.210;8.618;2023-03-14T05:23:50;92640.56;;;26.66;37.07
71194;BME280;58903;47.210;8.618;2023-03-14T05:26:20;92633.75;;;26.67;36.73
71194;BME280;58903;47.210;8.618;2023-03-14T05:28:59;92618.34;;;26.64;36.25
71194;BME280;58903;47.210;8.618;2023-03-14T05:31:33;92622.56;;;26.65;36.81
71194;BME280;58903;47.210;8.618;2023-03-14T05:34:33;92615.41;;;26.62;37.08
71194;BME280;58903;47.210;8.618;2023-03-14T05:37:10;92594.81;;;26.63;36.47
71194;BME280;58903;47.210;8.618;2023-03-14T05:39:38;92575.66;;;26.65;36.85
71194;BME280;58903;47.210;8.618;2023-03-14T05:42:21;92574.75;;;26.62;37.33
71194;BME280;58903;47.210;8.618;2023-03-14T05:44:51;92569.81;;;26.61;36.91
71194;BME280;58903;47.210;8.618;2023-03-14T05:47:34;92577.69;;;26.64;36.45
71194;BME280;58903;47.210;8.618;2023-03-14T05:50:14;92568.53;;;26.62;36.56
71194;BME280;58903;47.210;8.618;2023-03-14T05:52:54;92569.03;;;26.68;37.25
71194;BME280;58903;47.210;8.618;2023-03-14T05:55:20;92562.78;;;26.67;36.65
71194;BME280;58903;47.210;8.618;2023-03-14T05:57:50;92558.38;;;26.64;37.20
71194;BME280;58903;47.210;8.618;2023-03-14T06:00:16;92556.19;;;26.63;37.53
71194;BME280;58903;47.210;8.618;2023-03-14T06:02:46;92551.09;;;26.59;37.79
71194;BME280;58903;47.210;8.618;2023-03-14T06:05:12;92568.53;;;26.62;37.37
71194;BME280;58903;47.210;8.618;2023-03-14T06:07:41;92565.78;;;26.62;37.84
71194;BME280;58903;47.210;8.618;2023-03-14T06:10:07;92547.75;;;26.61;37.30
71194;BME280;58903;47.210;8.618;2023-03-14T06:12:33;92553.66;;;26.57;37.25
71194;BME280;58903;47.210;8.618;2023-03-14T06:14:59;92547.41;;;26.57;36.94
71194;BME280;58903;47.210;8.618;2023-03-14T06:17:25;92550.91;;;26.57;38.46
71194;BME280;58903;47.210;8.618;2023-03-14T06:19:51;92538.03;;;26.60;39.57
71194;BME280;58903;47.210;8.618;2023-03-14T06:22:17;92541.66;;;26.62;38.39
71194;BME280;58903;47.210;8.618;2023-03-14T06:25:01;92536.16;;;26.62;38.41
71194;BME280;58903;47.210;8.618;2023-03-14T06:27:30;92539.66;;;26.63;38.56
71194;BME280;58903;47.210;8.618;2023-03-14T06:29:56;92536.91;;;26.63;38.07
71194;BME280;58903;47.210;8.618;2023-03-14T06:32:22;92546.66;;;26.64;38.14
71194;BME280;58903;47.210;8.618;2023-03-14T06:34:48;92547.59;;;26.59;37.75
71194;BME280;58903;47.210;8.618;2023-03-14T06:37:14;92544.59;;;26.64;37.70
71194;BME280;58903;47.210;8.618;2023-03-14T06:39:40;92545.16;;;26.63;38.07
71194;BME280;58903;47.210;8.618;2023-03-14T06:42:09;92544.44;;;26.62;37.79
71194;BME280;58903;47.210;8.618;2023-03-14T06:44:36;92553.44;;;26.63;37.86
71194;BME280;58903;47.210;8.618;2023-03-14T06:47:05;92550.34;;;26.59;37.29
71194;BME280;58903;47.210;8.618;2023-03-14T06:49:35;92553.84;;;26.59;37.60
71194;BME280;58903;47.210;8.618;2023-03-14T06:52:04;92558.78;;;26.61;37.13
71194;BME280;58903;47.210;8.618;2023-03-14T06:54:30;92558.63;;;26.59;37.78
71194;BME280;58903;47.210;8.618;2023-03-14T06:56:56;92552.38;;;26.58;38.13
71194;BME280;58903;47.210;8.618;2023-03-14T06:59:22;92569.81;;;26.61;37.71
71194;BME280;58903;47.210;8.618;2023-03-14T07:01:50;92571.28;;;26.62;37.94
71194;BME280;58903;47.210;8.618;2023-03-14T07:04:17;92572.56;;;26.61;37.62
71194;BME280;58903;47.210;8.618;2023-03-14T07:06:43;92582.31;;;26.62;37.44
71194;BME280;58903;47.210;8.618;2023-03-14T07:09:15;92595.38;;;26.61;37.88
71194;BME280;58903;47.210;8.618;2023-03-14T07:11:45;92592.63;;;26.61;37.33
71194;BME280;58903;47.210;8.618;2023-03-14T07:14:11;92596.81;;;26.62;37.05
71194;BME280;58903;47.210;8.618;2023-03-14T07:16:39;92609.16;;;26.61;37.72
71194;BME280;58903;47.210;8.618;2023-03-14T07:19:05;92609.91;;;26.62;37.47
71194;BME280;58903;47.210;8.618;2023-03-14T07:21:37;92617.44;;;26.61;37.73
71194;BME280;58903;47.210;8.618;2023-03-14T07:24:03;92622.03;;;26.59;38.13
71194;BME280;58903;47.210;8.618;2023-03-14T07:26:31;92624.78;;;26.59;38.12
71194;BME280;58903;47.210;8.618;2023-03-14T07:28:57;92631.97;;;26.62;37.27
71194;BME280;58903;47.210;8.618;2023-03-14T07:31:29;92620.94;;;26.62;37.27
71194;BME280;58903;47.210;8.618;2023-03-14T07:33:57;92627.16;;;26.62;38.01
71194;BME280;58903;47.210;8.618;2023-03-14T07:36:24;92630.31;;;26.59;37.35
71194;BME280;58903;47.210;8.618;2023-03-14T07:38:51;92635.44;;;26.62;37.18
71194;BME280;58903;47.210;8.618;2023-03-14T07:41:20;92639.50;;;26.61;37.95
71194;BME280;58903;47.210;8.618;2023-03-14T07:43:49;92643.69;;;26.62;38.03
71194;BME280;58903;47.210;8.618;2023-03-14T07:46:18;92638.91;;;26.63;37.91
71194;BME280;58903;47.210;8.618;2023-03-14T07:48:44;92640.22;;;26.62;37.45
71194;BME280;58903;47.210;8.618;2023-03-14T07:51:12;92645.75;;;26.62;37.96
71194;BME280;58903;47.210;8.618;2023-03-14T07:53:38;92653.84;;;26.60;37.79
71194;BME280;58903;47.210;8.618;2023-03-14T07:56:05;92663.56;;;26.61;37.81
71194;BME280;58903;47.210;8.618;2023-03-14T07:58:32;92655.88;;;26.59;37.58
71194;BME280;58903;47.210;8.618;2023-03-14T08:01:04;92666.16;;;26.59;37.47
71194;BME280;58903;47.210;8.618;2023-03-14T08:03:38;92661.91;;;26.58;37.41
71194;BME280;58903;47.210;8.618;2023-03-14T08:06:06;92664.47;;;26.63;37.68
71194;BME280;58903;47.210;8.618;2023-03-14T08:08:35;92670.00;;;26.63;37.94
71194;BME280;58903;47.210;8.618;2023-03-14T08:11:06;92669.09;;;26.61;38.34
71194;BME280;58903;47.210;8.618;2023-03-14T08:13:40;92676.06;;;26.62;37.77
71194;BME280;58903;47.210;8.618;2023-03-14T08:16:19;92674.59;;;26.61;37.94
71194;BME280;58903;47.210;8.618;2023-03-14T08:18:50;92674.59;;;26.61;37.88
71194;BME280;58903;47.210;8.618;2023-03-14T08:21:19;92667.25;;;26.63;38.19
71194;BME280;58903;47.210;8.618;2023-03-14T08:23:58;92668.53;;;26.62;37.76
71194;BME280;58903;47.210;8.618;2023-03-14T08:26:28;92675.34;;;26.61;37.58
71194;BME280;58903;47.210;8.618;2023-03-14T08:29:13;92670.56;;;26.62;37.91
71194;BME280;58903;47.210;8.618;2023-03-14T08:31:45;92676.63;;;26.60;37.90
71194;BME280;58903;47.210;8.618;2023-03-14T08:34:13;92681.59;;;26.62;38.03
71194;BME280;58903;47.210;8.618;2023-03-14T08:36:40;92686.38;;;26.61;37.90
71194;BME280;58903;47.210;8.618;2023-03-14T08:39:40;92680.13;;;26.61;38.17
71194;BME280;58903;47.210;8.618;2023-03-14T08:42:14;92686.94;;;26.60;37.97
71194;BME280;58903;47.210;8.618;2023-03-14T08:44:41;92699.41;;;26.61;38.11
71194;BME280;58903;47.210;8.618;2023-03-14T08:47:08;92689.50;;;26.58;38.42
71194;BME280;58903;47.210;8.618;2023-03-14T08:49:43;92689.50;;;26.58;37.74
71194;BME280;58903;47.210;8.618;2023-03-14T08:52:12;92684.88;;;26.60;37.56
71194;BME280;58903;47.210;8.618;2023-03-14T08:54:52;92684.19;;;26.60;37.83
71194;BME280;58903;47.210;8.618;2023-03-14T08:57:19;92694.47;;;26.59;38.03
71194;BME280;58903;47.210;8.618;2023-03-14T08:59:48;92696.50;;;26.59;37.87
71194;BME280;58903;47.210;8.618;2023-03-14T09:02:14;92692.25;;;26.58;38.17
71194;BME280;58903;47.210;8.618;2023-03-14T09:04:40;92699.25;;;26.59;37.73
71194;BME280;58903;47.210;8.618;2023-03-14T09:07:06;92702.75;;;26.59;38.22
71194;BME280;58903;47.210;8.618;2023-03-14T09:09:35;92709.00;;;26.60;37.93
71194;BME280;58903;47.210;8.618;2023-03-14T09:12:11;92705.50;;;26.59;38.48
71194;BME280;58903;47.210;8.618;2023-03-14T09:14:44;92718.53;;;26.59;37.68
71194;BME280;58903;47.210;8.618;2023-03-14T09:17:18;92713.03;;;26.59;37.77
71194;BME280;58903;47.210;8.618;2023-03-14T09:19:44;92699.63;;;26.55;37.95
71194;BME280;58903;47.210;8.618;2023-03-14T09:22:11;92706.25;;;26.60;37.88
71194;BME280;58903;47.210;8.618;2023-03-14T09:24:50;92697.97;;;26.60;38.29
71194;BME280;58903;47.210;8.618;2023-03-14T09:27:24;92682.69;;;26.59;38.46
71194;BME280;58903;47.210;8.618;2023-03-14T09:29:50;92691.16;;;26.61;38.21
71194;BME280;58903;47.210;8.618;2023-03-14T09:32:16;92690.22;;;26.58;38.37
71194;BME280;58903;47.210;8.618;2023-03-14T09:34:52;92698.69;;;26.60;38.12
71194;BME280;58903;47.210;8.618;2023-03-14T09:37:19;92695.22;;;26.60;37.77
71194;BME280;58903;47.210;8.618;2023-03-14T09:39:51;92696.50;;;26.59;38.34
71194;BME280;58903;47.210;8.618;2023-03-14T09:42:23;92708.44;;;26.61;37.78
71194;BME280;58903;47.210;8.618;2023-03-14T09:44:56;92713.94;;;26.61;38.27
71194;BME280;58903;47.210;8.618;2023-03-14T09:47:54;92709.16;;;26.62;38.33
71194;BME280;58903;47.210;8.618;2023-03-14T09:50:21;92705.09;;;26.63;37.76
71194;BME280;58903;47.210;8.618;2023-03-14T09:53:04;92709.34;;;26.64;37.82
71194;BME280;58903;47.210;8.618;2023-03-14T09:55:32;92707.88;;;26.63;38.12
71194;BME280;58903;47.210;8.618;2023-03-14T09:58:08;92710.63;;;26.63;37.70
71194;BME280;58903;47.210;8.618;2023-03-14T10:00:38;92706.25;;;26.60;37.88
71194;BME280;58903;47.210;8.618;2023-03-14T10:03:25;92719.47;;;26.61;37.87
71194;BME280;58903;47.210;8.618;2023-03-14T10:05:59;92720.91;;;26.62;37.88
71194;BME280;58903;47.210;8.618;2023-03-14T10:08:27;92722.97;;;26.62;38.52
71194;BME280;58903;47.210;8.618;2023-03-14T10:10:53;92717.44;;;26.62;38.08
71194;BME280;58903;47.210;8.618;2023-03-14T10:13:30;92728.31;;;26.60;38.00
71194;BME280;58903;47.210;8.618;2023-03-14T10:16:15;92733.81;;;26.60;38.00
71194;BME280;58903;47.210;8.618;2023-03-14T10:19:02;92741.34;;;26.59;37.81
71194;BME280;58903;47.210;8.618;2023-03-14T10:21:38;92735.09;;;26.59;38.48
71194;BME280;58903;47.210;8.618;2023-03-14T10:24:27;92746.28;;;26.61;38.32
71194;BME280;58903;47.210;8.618;2023-03-14T10:26:59;92738.75;;;26.61;38.41
71194;BME280;58903;47.210;8.618;2023-03-14T10:29:31;92746.13;;;26.59;38.69
71194;BME280;58903;47.210;8.618;2023-03-14T10:32:10;92745.56;;;26.60;38.12
71194;BME280;58903;47.210;8.618;2023-03-14T10:38:14;92762.84;;;26.61;38.01
71194;BME280;58903;47.210;8.618;2023-03-14T10:40:48;92770.38;;;26.60;38.26
71194;BME280;58903;47.210;8.618;2023-03-14T10:43:19;92768.91;;;26.59;38.17
71194;BME280;58903;47.210;8.618;2023-03-14T10:45:59;92776.47;;;26.59;37.81
71194;BME280;58903;47.210;8.618;2023-03-14T10:48:32;92778.66;;;26.60;38.19
71194;BME280;58903;47.210;8.618;2023-03-14T10:51:11;92784.16;;;26.60;38.37
71194;BME280;58903;47.210;8.618;2023-03-14T10:54:14;92790.81;;;26.57;38.23
71194;BME280;58903;47.210;8.618;2023-03-14T10:56:44;92796.31;;;26.57;38.61
71194;BME280;58903;47.210;8.618;2023-03-14T10:59:14;92808.63;;;26.56;37.79
71194;BME280;58903;47.210;8.618;2023-03-14T11:07:47;92838.97;;;26.56;38.50
71194;BME280;58903;47.210;8.618;2023-03-14T11:10:35;92836.38;;;26.58;38.35
71194;BME280;58903;47.210;8.618;2023-03-14T11:13:28;92839.69;;;26.57;38.20
71194;BME280;58903;47.210;8.618;2023-03-14T11:21:56;92861.59;;;26.55;38.15
71194;BME280;58903;47.210;8.618;2023-03-14T11:24:48;92873.88;;;26.54;38.77
71194;BME280;58903;47.210;8.618;2023-03-14T11:27:40;92878.69;;;26.53;37.92
71194;BME280;58903;47.210;8.618;2023-03-14T11:30:50;92891.72;;;26.53;38.02
71194;BME280;58903;47.210;8.618;2023-03-14T11:33:18;92895.22;;;26.53;38.22
71194;BME280;58903;47.210;8.618;2023-03-14T11:38:58;92921.88;;;26.51;38.84
71194;BME280;58903;47.210;8.618;2023-03-14T11:41:32;92914.69;;;26.48;38.10
71194;BME280;58903;47.210;8.618;2023-03-14T11:44:20;92927.94;;;26.49;38.27
71194;BME280;58903;47.210;8.618;2023-03-14T11:47:15;92927.03;;;26.47;38.20
71194;BME280;58903;47.210;8.618;2023-03-14T11:49:53;92931.25;;;26.48;38.70
71194;BME280;58903;47.210;8.618;2023-03-14T11:52:41;92945.22;;;26.50;37.91
71194;BME280;58903;47.210;8.618;2023-03-14T11:55:31;92961.75;;;26.50;37.87
71194;BME280;58903;47.210;8.618;2023-03-14T12:01:31;92964.69;;;26.52;37.79
71194;BME280;58903;47.210;8.618;2023-03-14T12:04:31;92962.13;;;26.54;37.92
71194;BME280;58903;47.210;8.618;2023-03-14T12:10:45;92975.91;;;26.54;37.86
71194;BME280;58903;47.210;8.618;2023-03-14T12:13:16;92991.75;;;26.53;38.15
71194;BME280;58903;47.210;8.618;2023-03-14T12:18:53;92999.09;;;26.51;38.30
71194;BME280;58903;47.210;8.618;2023-03-14T12:21:42;92984.56;;;26.50;38.43
71194;BME280;58903;47.210;8.618;2023-03-14T12:33:37;92997.03;;;26.51;37.80
71194;BME280;58903;47.210;8.618;2023-03-14T12:45:45;93017.28;;;26.54;38.29
71194;BME280;58903;47.210;8.618;2023-03-14T12:48:39;93028.31;;;26.54;37.89
71194;BME280;58903;47.210;8.618;2023-03-14T12:51:41;93039.88;;;26.52;37.77
71194;BME280;58903;47.210;8.618;2023-03-14T12:54:46;93057.19;;;26.53;38.34
71194;BME280;58903;47.210;8.618;2023-03-14T13:00:29;93070.22;;;26.52;38.50
71194;BME280;58903;47.210;8.618;2023-03-14T13:03:36;93068.38;;;26.55;38.03
71194;BME280;58903;47.210;8.618;2023-03-14T13:06:05;93079.97;;;26.53;38.15
71194;BME280;58903;47.210;8.618;2023-03-14T13:08:41;93091.19;;;26.55;38.63
71194;BME280;58903;47.210;8.618;2023-03-14T13:11:12;93093.03;;;26.53;37.70
71194;BME280;58903;47.210;8.618;2023-03-14T13:13:59;93099.47;;;26.55;38.40
71194;BME280;58903;47.210;8.618;2023-03-14T13:16:37;93106.44;;;26.56;38.66
71194;BME280;58903;47.210;8.618;2023-03-14T13:19:19;93114.72;;;26.56;37.99
71194;BME280;58903;47.210;8.618;2023-03-14T13:22:17;93120.97;;;26.57;37.87
71194;BME280;58903;47.210;8.618;2023-03-14T13:25:21;93128.13;;;26.52;37.93
71194;BME280;58903;47.210;8.618;2023-03-14T13:28:02;93130.50;;;26.48;38.47
71194;BME280;58903;47.210;8.618;2023-03-14T13:30:41;93125.72;;;26.49;37.92
71194;BME280;58903;47.210;8.618;2023-03-14T13:33:18;93130.69;;;26.50;38.02
71194;BME280;58903;47.210;8.618;2023-03-14T13:36:05;93145.94;;;26.51;37.93
71194;BME280;58903;47.210;8.618;2023-03-14T13:38:35;93166.00;;;26.52;38.65
71194;BME280;58903;47.210;8.618;2023-03-14T13:41:13;93161.41;;;26.54;38.44
71194;BME280;58903;47.210;8.618;2023-03-14T13:43:41;93181.25;;;26.53;38.33
71194;BME280;58903;47.210;8.618;2023-03-14T13:46:20;93174.44;;;26.54;38.05
71194;BME280;58903;47.210;8.618;2023-03-14T13:49:03;93187.53;;;26.53;38.05
71194;BME280;58903;47.210;8.618;2023-03-14T13:51:42;93207.53;;;26.54;37.78
71194;BME280;58903;47.210;8.618;2023-03-14T13:54:31;93211.97;;;26.57;38.57
71194;BME280;58903;47.210;8.618;2023-03-14T13:57:05;93220.06;;;26.55;38.12
71194;BME280;58903;47.210;8.618;2023-03-14T13:59:40;93217.31;;;26.55;38.20
71194;BME280;58903;47.210;8.618;2023-03-14T14:02:14;93220.06;;;26.55;38.77
71194;BME280;58903;47.210;8.618;2023-03-14T14:04:40;93227.03;;;26.56;37.91
71194;BME280;58903;47.210;8.618;2023-03-14T14:07:22;93227.03;;;26.56;38.28
71194;BME280;58903;47.210;8.618;2023-03-14T14:09:51;93227.78;;;26.56;38.55
71194;BME280;58903;47.210;8.618;2023-03-14T14:12:42;93223.56;;;26.55;38.09
71194;BME280;58903;47.210;8.618;2023-03-14T14:15:25;93225.56;;;26.55;38.33
71194;BME280;58903;47.210;8.618;2023-03-14T14:18:04;93220.25;;;26.57;38.02
71194;BME280;58903;47.210;8.618;2023-03-14T14:20:38;93235.72;;;26.60;37.80
71194;BME280;58903;47.210;8.618;2023-03-14T14:23:14;93239.94;;;26.61;37.96
71194;BME280;58903;47.210;8.618;2023-03-14T14:25:43;93235.34;;;26.63;37.67
71194;BME280;58903;47.210;8.618;2023-03-14T14:28:27;93235.72;;;26.60;38.03
71194;BME280;58903;47.210;8.618;2023-03-14T14:31:21;93237.94;;;26.61;38.40
71194;BME280;58903;47.210;8.618;2023-03-14T14:41:59;93250.22;;;26.60;38.01
71194;BME280;58903;47.210;8.618;2023-03-14T14:44:35;93252.47;;;26.62;38.20
71194;BME280;58903;47.210;8.618;2023-03-14T14:47:04;93257.78;;;26.60;37.67
71194;BME280;58903;47.210;8.618;2023-03-14T14:49:32;93262.00;;;26.61;37.71
71194;BME280;58903;47.210;8.618;2023-03-14T14:52:06;93264.38;;;26.57;38.43
71194;BME280;58903;47.210;8.618;2023-03-14T14:54:44;93262.75;;;26.61;37.75
71194;BME280;58903;47.210;8.618;2023-03-14T14:57:19;93266.25;;;26.62;37.94
71194;BME280;58903;47.210;8.618;2023-03-14T14:59:49;93263.69;;;26.64;37.94
71194;BME280;58903;47.210;8.618;2023-03-14T15:05:27;93274.16;;;26.65;37.91